sensor_id;sensor_type;location;lat;lon;timestamp;pressure;altitude;pressure_sealevel;temperature;humidity
13732;BME280;6937;56.096;12.664;2023-04-12T00:02:23;100823.56;;;6.39;100.00
13732;BME280;6937;56.096;12.664;2023-04-12T00:04:49;100827.84;;;6.42;100.00
13732;BME280;6937;56.096;12.664;2023-04-12T00:07:24;100825.19;;;6.42;100.00
13732;BME280;6937;56.096;12.664;2023-04-12T00:09:51;100820.66;;;6.44;100.00
13732;BME280;6937;56.096;12.664;2023-04-12T00:12:17;100824.19;;;6.44;100.00
13732;BME280;6937;56.096;12.664;2023-04-12T00:14:44;100819.75;;;6.45;100.00
13732;BME280;6937;56.096;12.664;2023-04-12T00:17:09;100814.25;;;6.48;100.00
13732;BME280;6937;56.096;12.664;2023-04-12T00:19:34;100816.75;;;6.51;100.00
13732;BME280;6937;56.096;12.664;2023-04-12T00:22:00;100819.41;;;6.51;100.00
13732;BME280;6937;56.096;12.664;2023-04-12T00:24:26;100814.84;;;6.53;100.00
13732;BME280;6937;56.096;12.664;2023-04-12T00:26:51;100798.16;;;6.51;100.00
13732;BME280;6937;56.096;12.664;2023-04-12T00:29:17;100805.25;;;6.50;100.00
13732;BME280;6937;56.096;12.664;2023-04-12T00:31:42;100805.25;;;6.50;100.00
13732;BME280;6937;56.096;12.664;2023-04-12T00:34:07;100804.56;;;6.47;100.00
13732;BME280;6937;56.096;12.664;2023-04-12T00:36:33;100793.44;;;6.40;100.00
13732;BME280;6937;56.096;12.664;2023-04-12T00:38:58;100803.19;;;6.40;100.00
13732;BME280;6937;56.096;12.664;2023-04-12T00:41:25;100797.03;;;6.39;100.00
13732;BME280;6937;56.096;12.664;2023-04-12T00:43:51;100800.59;;;6.38;100.00
13732;BME280;6937;56.096;12.664;2023-04-12T00:46:17;100790.09;;;6.37;100.00
13732;BME280;6937;56.096;12.664;2023-04-12T00:48:43;100785.66;;;6.37;100.00
13732;BME280;6937;56.096;12.664;2023-04-12T00:51:12;100789.41;;;6.33;100.00
13732;BME280;6937;56.096;12.664;2023-04-12T00:53:38;100780.75;;;6.29;100.00
13732;BME280;6937;56.096;12.664;2023-04-12T00:56:04;100779.22;;;6.25;100.00
13732;BME280;6937;56.096;12.664;2023-04-12T00:58:31;100791.84;;;6.20;100.00
13732;BME280;6937;56.096;12.664;2023-04-12T01:00:57;100788.59;;;6.15;100.00
13732;BME280;6937;56.096;12.664;2023-04-12T01:03:22;100782.50;;;6.13;100.00
13732;BME280;6937;56.096;12.664;2023-04-12T01:06:06;100781.81;;;6.10;100.00
13732;BME280;6937;56.096;12.664;2023-04-12T01:08:41;100787.38;;;6.05;100.00
13732;BME280;6937;56.096;12.664;2023-04-12T01:11:22;100788.47;;;6.01;100.00
13732;BME280;6937;56.096;12.664;2023-04-12T01:14:00;100778.97;;;5.97;100.00
13732;BME280;6937;56.096;12.664;2023-04-12T01:16:32;100774.69;;;5.95;100.00
13732;BME280;6937;56.096;12.664;2023-04-12T01:19:03;100769.63;;;5.90;100.00
13732;BME280;6937;56.096;12.664;2023-04-12T01:21:54;100768.00;;;5.88;100.00
13732;BME280;6937;56.096;12.664;2023-04-12T01:25:02;100767.16;;;5.85;100.00
13732;BME280;6937;56.096;12.664;2023-04-12T01:27:44;100772.63;;;5.82;100.00
13732;BME280;6937;56.096;12.664;2023-04-12T01:30:13;100766.47;;;5.82;100.00
13732;BME280;6937;56.096;12.664;2023-04-12T01:32:43;100761.97;;;5.84;100.00
13732;BME280;6937;56.096;12.664;2023-04-12T01:35:11;100761.09;;;5.83;100.00
13732;BME280;6937;56.096;12.664;2023-04-12T01:37:38;100768.19;;;5.83;100.00
13732;BME280;6937;56.096;12.664;2023-04-12T01:40:05;100769.06;;;5.83;100.00
13732;BME280;6937;56.096;12.664;2023-04-12T01:42:31;100762.03;;;5.82;100.00
13732;BME280;6937;56.096;12.664;2023-04-12T01:44:57;100762.13;;;5.81;100.00
13732;BME280;6937;56.096;12.664;2023-04-12T01:47:22;100774.66;;;5.77;100.00
13732;BME280;6937;56.096;12.664;2023-04-12T01:50:07;100769.53;;;5.74;100.00
13732;BME280;6937;56.096;12.664;2023-04-12T01:52:41;100774.06;;;5.72;100.00
13732;BME280;6937;56.096;12.664;2023-04-12T01:55:08;100759.94;;;5.72;100.00
13732;BME280;6937;56.096;12.664;2023-04-12T01:57:36;100767.97;;;5.70;100.00
13732;BME280;6937;56.096;12.664;2023-04-12T02:00:04;100767.91;;;5.72;100.00
13732;BME280;6937;56.096;12.664;2023-04-12T02:02:31;100762.59;;;5.72;100.00
13732;BME280;6937;56.096;12.664;2023-04-12T02:05:00;100762.13;;;5.64;100.00
13732;BME280;6937;56.096;12.664;2023-04-12T02:07:26;100765.13;;;5.58;100.00
13732;BME280;6937;56.096;12.664;2023-04-12T02:09:51;100761.66;;;5.56;100.00
13732;BME280;6937;56.096;12.664;2023-04-12T02:12:17;100758.31;;;5.52;100.00
13732;BME280;6937;56.096;12.664;2023-04-12T02:14:42;100764.31;;;5.56;100.00
13732;BME280;6937;56.096;12.664;2023-04-12T02:17:07;100750.31;;;5.54;100.00
13732;BME280;6937;56.096;12.664;2023-04-12T02:19:33;100748.59;;;5.53;100.00
13732;BME280;6937;56.096;12.664;2023-04-12T02:21:59;100744.06;;;5.55;100.00
13732;BME280;6937;56.096;12.664;2023-04-12T02:24:25;100737.06;;;5.54;100.00
13732;BME280;6937;56.096;12.664;2023-04-12T02:26:51;100741.56;;;5.52;100.00
13732;BME280;6937;56.096;12.664;2023-04-12T02:29:16;100741.56;;;5.52;100.00
13732;BME280;6937;56.096;12.664;2023-04-12T02:31:42;100732.38;;;5.42;100.00
13732;BME280;6937;56.096;12.664;2023-04-12T02:34:07;100735.25;;;5.37;100.00
13732;BME280;6937;56.096;12.664;2023-04-12T02:36:32;100736.44;;;5.31;100.00
13732;BME280;6937;56.096;12.664;2023-04-12T02:38:59;100724.44;;;5.24;100.00
13732;BME280;6937;56.096;12.664;2023-04-12T02:41:24;100729.81;;;5.23;100.00
13732;BME280;6937;56.096;12.664;2023-04-12T02:43:50;100724.50;;;5.23;100.00
13732;BME280;6937;56.096;12.664;2023-04-12T02:46:21;100718.59;;;5.18;100.00
13732;BME280;6937;56.096;12.664;2023-04-12T02:48:47;100714.69;;;5.08;100.00
13732;BME280;6937;56.096;12.664;2023-04-12T02:51:13;100714.63;;;5.09;100.00
13732;BME280;6937;56.096;12.664;2023-04-12T02:53:39;100710.25;;;5.08;100.00
13732;BME280;6937;56.096;12.664;2023-04-12T02:56:05;100705.72;;;5.10;100.00
13732;BME280;6937;56.096;12.664;2023-04-12T02:58:30;100712.59;;;5.14;100.00
13732;BME280;6937;56.096;12.664;2023-04-12T03:00:58;100709.41;;;5.08;100.00
13732;BME280;6937;56.096;12.664;2023-04-12T03:03:24;100704.81;;;4.94;100.00
13732;BME280;6937;56.096;12.664;2023-04-12T03:05:51;100714.22;;;4.82;100.00
13732;BME280;6937;56.096;12.664;2023-04-12T03:08:17;100718.31;;;4.71;100.00
13732;BME280;6937;56.096;12.664;2023-04-12T03:10:42;100714.31;;;4.62;100.00
13732;BME280;6937;56.096;12.664;2023-04-12T03:13:08;100715.50;;;4.57;100.00
13732;BME280;6937;56.096;12.664;2023-04-12T03:15:33;100717.88;;;4.61;100.00
13732;BME280;6937;56.096;12.664;2023-04-12T03:17:58;100715.72;;;4.69;100.00
13732;BME280;6937;56.096;12.664;2023-04-12T03:20:24;100714.66;;;4.73;100.00
13732;BME280;6937;56.096;12.664;2023-04-12T03:22:49;100713.25;;;4.66;100.00
13732;BME280;6937;56.096;12.664;2023-04-12T03:25:15;100714.41;;;4.61;100.00
13732;BME280;6937;56.096;12.664;2023-04-12T03:27:42;100709.41;;;4.55;100.00
13732;BME280;6937;56.096;12.664;2023-04-12T03:30:09;100704.03;;;4.56;100.00
13732;BME280;6937;56.096;12.664;2023-04-12T03:32:36;100708.41;;;4.57;100.00
13732;BME280;6937;56.096;12.664;2023-04-12T03:35:01;100700.31;;;4.60;100.00
13732;BME280;6937;56.096;12.664;2023-04-12T03:37:27;100702.66;;;4.66;100.00
13732;BME280;6937;56.096;12.664;2023-04-12T03:39:53;100698.22;;;4.67;100.00
13732;BME280;6937;56.096;12.664;2023-04-12T03:42:18;100697.22;;;4.69;100.00
13732;BME280;6937;56.096;12.664;2023-04-12T03:44:44;100698.88;;;4.72;100.00
13732;BME280;6937;56.096;12.664;2023-04-12T03:47:09;100700.66;;;4.71;100.00
13732;BME280;6937;56.096;12.664;2023-04-12T03:49:35;100694.50;;;4.71;100.00
13732;BME280;6937;56.096;12.664;2023-04-12T03:52:03;100698.06;;;4.70;100.00
13732;BME280;6937;56.096;12.664;2023-04-12T03:54:29;100695.41;;;4.70;100.00
13732;BME280;6937;56.096;12.664;2023-04-12T03:56:54;100705.16;;;4.69;100.00
13732;BME280;6937;56.096;12.664;2023-04-12T03:59:20;100704.22;;;4.70;100.00
13732;BME280;6937;56.096;12.664;2023-04-12T04:01:46;100702.44;;;4.71;100.00
13732;BME280;6937;56.096;12.664;2023-04-12T04:04:11;100690.13;;;4.70;100.00
13732;BME280;6937;56.096;12.664;2023-04-12T04:06:37;100683.97;;;4.69;100.00
13732;BME280;6937;56.096;12.664;2023-04-12T04:09:03;100671.75;;;4.67;100.00
13732;BME280;6937;56.096;12.664;2023-04-12T04:11:28;100665.59;;;4.66;100.00
13732;BME280;6937;56.096;12.664;2023-04-12T04:13:53;100667.31;;;4.67;100.00
13732;BME280;6937;56.096;12.664;2023-04-12T04:16:19;100668.56;;;4.60;100.00
13732;BME280;6937;56.096;12.664;2023-04-12T04:18:44;100665.13;;;4.58;100.00
13732;BME280;6937;56.096;12.664;2023-04-12T04:21:10;100674.84;;;4.58;100.00
13732;BME280;6937;56.096;12.664;2023-04-12T04:23:35;100665.91;;;4.60;100.00
13732;BME280;6937;56.096;12.664;2023-04-12T04:26:07;100669.81;;;4.53;100.00
13732;BME280;6937;56.096;12.664;2023-04-12T04:28:35;100667.97;;;4.54;100.00
13732;BME280;6937;56.096;12.664;2023-04-12T04:31:01;100666.19;;;4.54;100.00
13732;BME280;6937;56.096;12.664;2023-04-12T04:33:33;100663.00;;;4.48;100.00
13732;BME280;6937;56.096;12.664;2023-04-12T04:36:00;100661.44;;;4.44;100.00
13732;BME280;6937;56.096;12.664;2023-04-12T04:38:26;100650.09;;;4.42;100.00
13732;BME280;6937;56.096;12.664;2023-04-12T04:40:52;100654.41;;;4.43;100.00
13732;BME280;6937;56.096;12.664;2023-04-12T04:43:18;100645.72;;;4.41;100.00
13732;BME280;6937;56.096;12.664;2023-04-12T04:45:45;100652.88;;;4.38;100.00
13732;BME280;6937;56.096;12.664;2023-04-12T04:48:12;100646.56;;;4.41;100.00
13732;BME280;6937;56.096;12.664;2023-04-12T04:50:38;100645.66;;;4.42;100.00
13732;BME280;6937;56.096;12.664;2023-04-12T04:53:03;100637.78;;;4.58;100.00
13732;BME280;6937;56.096;12.664;2023-04-12T04:55:28;100643.88;;;4.60;100.00
13732;BME280;6937;56.096;12.664;2023-04-12T04:57:54;100635.84;;;4.61;100.00
13732;BME280;6937;56.096;12.664;2023-04-12T05:00:22;100634.75;;;4.65;100.00
13732;BME280;6937;56.096;12.664;2023-04-12T05:02:50;100631.13;;;4.68;100.00
13732;BME280;6937;56.096;12.664;2023-04-12T05:05:16;100629.94;;;4.73;100.00
13732;BME280;6937;56.096;12.664;2023-04-12T05:07:41;100631.50;;;4.77;100.00
13732;BME280;6937;56.096;12.664;2023-04-12T05:10:08;100624.34;;;4.79;100.00
13732;BME280;6937;56.096;12.664;2023-04-12T05:12:34;100628.56;;;4.83;100.00
13732;BME280;6937;56.096;12.664;2023-04-12T05:15:00;100632.91;;;4.84;100.00
13732;BME280;6937;56.096;12.664;2023-04-12T05:17:26;100641.53;;;4.88;100.00
13732;BME280;6937;56.096;12.664;2023-04-12T05:19:51;100638.75;;;4.91;100.00
13732;BME280;6937;56.096;12.664;2023-04-12T05:22:17;100640.63;;;4.89;100.00
13732;BME280;6937;56.096;12.664;2023-04-12T05:24:45;100636.72;;;4.96;100.00
13732;BME280;6937;56.096;12.664;2023-04-12T05:27:10;100642.81;;;4.98;100.00
13732;BME280;6937;56.096;12.664;2023-04-12T05:29:35;100632.06;;;5.01;100.00
13732;BME280;6937;56.096;12.664;2023-04-12T05:32:01;100636.25;;;5.05;100.00
13732;BME280;6937;56.096;12.664;2023-04-12T05:34:26;100633.44;;;5.08;100.00
13732;BME280;6937;56.096;12.664;2023-04-12T05:36:52;100630.47;;;5.14;100.00
13732;BME280;6937;56.096;12.664;2023-04-12T05:39:17;100623.16;;;5.19;100.00
13732;BME280;6937;56.096;12.664;2023-04-12T05:41:42;100624.59;;;5.25;100.00
13732;BME280;6937;56.096;12.664;2023-04-12T05:44:08;100623.19;;;5.35;100.00
13732;BME280;6937;56.096;12.664;2023-04-12T05:46:33;100630.75;;;5.43;100.00
13732;BME280;6937;56.096;12.664;2023-04-12T05:48:59;100624.47;;;5.44;100.00
13732;BME280;6937;56.096;12.664;2023-04-12T05:51:24;100622.63;;;5.46;100.00
13732;BME280;6937;56.096;12.664;2023-04-12T05:53:50;100619.81;;;5.49;100.00
13732;BME280;6937;56.096;12.664;2023-04-12T05:56:15;100609.03;;;5.52;100.00
13732;BME280;6937;56.096;12.664;2023-04-12T05:58:41;100609.72;;;5.55;100.00
13732;BME280;6937;56.096;12.664;2023-04-12T06:01:06;100614.72;;;5.61;100.00
13732;BME280;6937;56.096;12.664;2023-04-12T06:03:32;100617.88;;;5.68;100.00
13732;BME280;6937;56.096;12.664;2023-04-12T06:05:57;100605.13;;;5.74;100.00
13732;BME280;6937;56.096;12.664;2023-04-12T06:08:22;100612.66;;;5.82;100.00
13732;BME280;6937;56.096;12.664;2023-04-12T06:10:48;100606.09;;;5.89;100.00
13732;BME280;6937;56.096;12.664;2023-04-12T06:13:14;100603.03;;;5.97;100.00
13732;BME280;6937;56.096;12.664;2023-04-12T06:15:39;100600.97;;;6.02;100.00
13732;BME280;6937;56.096;12.664;2023-04-12T06:18:07;100598.59;;;6.13;100.00
13732;BME280;6937;56.096;12.664;2023-04-12T06:20:33;100590.19;;;6.20;100.00
13732;BME280;6937;56.096;12.664;2023-04-12T06:22:58;100590.78;;;6.25;100.00
13732;BME280;6937;56.096;12.664;2023-04-12T06:25:23;100588.63;;;6.32;100.00
13732;BME280;6937;56.096;12.664;2023-04-12T06:27:50;100589.22;;;6.37;100.00
13732;BME280;6937;56.096;12.664;2023-04-12T06:30:15;100587.06;;;6.44;100.00
13732;BME280;6937;56.096;12.664;2023-04-12T06:32:41;100578.84;;;6.48;100.00
13732;BME280;6937;56.096;12.664;2023-04-12T06:35:06;100585.41;;;6.57;100.00
13732;BME280;6937;56.096;12.664;2023-04-12T06:37:32;100576.13;;;6.64;100.00
13732;BME280;6937;56.096;12.664;2023-04-12T06:39:57;100577.66;;;6.68;100.00
13732;BME280;6937;56.096;12.664;2023-04-12T06:42:23;100572.75;;;6.76;100.00
13732;BME280;6937;56.096;12.664;2023-04-12T06:44:48;100566.03;;;6.85;100.00
13732;BME280;6937;56.096;12.664;2023-04-12T06:47:13;100576.78;;;6.97;100.00
13732;BME280;6937;56.096;12.664;2023-04-12T06:49:40;100570.91;;;7.06;100.00
13732;BME280;6937;56.096;12.664;2023-04-12T06:52:05;100576.41;;;7.17;100.00
13732;BME280;6937;56.096;12.664;2023-04-12T06:54:32;100572.72;;;7.34;100.00
13732;BME280;6937;56.096;12.664;2023-04-12T06:57:00;100579.19;;;7.44;100.00
13732;BME280;6937;56.096;12.664;2023-04-12T06:59:26;100576.78;;;7.54;100.00
13732;BME280;6937;56.096;12.664;2023-04-12T07:01:51;100569.66;;;7.54;100.00
13732;BME280;6937;56.096;12.664;2023-04-12T07:04:16;100571.47;;;7.68;100.00
13732;BME280;6937;56.096;12.664;2023-04-12T07:06:42;100574.19;;;7.81;100.00
13732;BME280;6937;56.096;12.664;2023-04-12T07:09:07;100571.16;;;7.87;100.00
13732;BME280;6937;56.096;12.664;2023-04-12T07:11:32;100569.69;;;7.95;100.00
13732;BME280;6937;56.096;12.664;2023-04-12T07:13:58;100566.63;;;8.01;100.00
13732;BME280;6937;56.096;12.664;2023-04-12T07:16:24;100557.19;;;8.10;100.00
13732;BME280;6937;56.096;12.664;2023-04-12T07:18:49;100558.53;;;8.17;100.00
13732;BME280;6937;56.096;12.664;2023-04-12T07:21:15;100555.44;;;8.23;100.00
13732;BME280;6937;56.096;12.664;2023-04-12T07:23:42;100550.38;;;8.33;100.00
13732;BME280;6937;56.096;12.664;2023-04-12T07:26:08;100551.50;;;8.43;100.00
13732;BME280;6937;56.096;12.664;2023-04-12T07:28:33;100554.38;;;8.52;100.00
13732;BME280;6937;56.096;12.664;2023-04-12T07:31:03;100556.75;;;8.57;100.00
13732;BME280;6937;56.096;12.664;2023-04-12T07:33:28;100563.34;;;8.64;100.00
13732;BME280;6937;56.096;12.664;2023-04-12T07:35:54;100568.16;;;8.71;100.00
13732;BME280;6937;56.096;12.664;2023-04-12T07:38:19;100570.63;;;8.74;100.00
13732;BME280;6937;56.096;12.664;2023-04-12T07:40:45;100567.09;;;8.74;100.00
13732;BME280;6937;56.096;12.664;2023-04-12T07:43:10;100567.00;;;8.76;100.00
13732;BME280;6937;56.096;12.664;2023-04-12T07:45:36;100563.81;;;8.83;100.00
13732;BME280;6937;56.096;12.664;2023-04-12T07:48:01;100567.34;;;8.96;100.00
13732;BME280;6937;56.096;12.664;2023-04-12T07:50:27;100561.91;;;8.98;100.00
13732;BME280;6937;56.096;12.664;2023-04-12T07:52:53;100562.47;;;9.03;100.00
13732;BME280;6937;56.096;12.664;2023-04-12T07:55:18;100566.19;;;9.13;100.00
13732;BME280;6937;56.096;12.664;2023-04-12T07:57:43;100563.44;;;9.14;100.00
13732;BME280;6937;56.096;12.664;2023-04-12T08:00:09;100561.81;;;9.25;100.00
13732;BME280;6937;56.096;12.664;2023-04-12T08:02:35;100563.19;;;9.30;100.00
13732;BME280;6937;56.096;12.664;2023-04-12T08:05:00;100551.34;;;9.34;100.00
13732;BME280;6937;56.096;12.664;2023-04-12T08:07:26;100555.41;;;9.40;100.00
13732;BME280;6937;56.096;12.664;2023-04-12T08:09:51;100554.00;;;9.47;100.00
13732;BME280;6937;56.096;12.664;2023-04-12T08:12:17;100546.63;;;9.50;100.00
13732;BME280;6937;56.096;12.664;2023-04-12T08:14:42;100543.41;;;9.58;100.00
13732;BME280;6937;56.096;12.664;2023-04-12T08:17:07;100531.13;;;9.68;100.00
13732;BME280;6937;56.096;12.664;2023-04-12T08:19:33;100532.16;;;9.78;100.00
13732;BME280;6937;56.096;12.664;2023-04-12T08:21:59;100510.19;;;9.75;100.00
13732;BME280;6937;56.096;12.664;2023-04-12T08:24:25;100522.22;;;9.80;100.00
13732;BME280;6937;56.096;12.664;2023-04-12T08:26:50;100525.66;;;9.82;100.00
13732;BME280;6937;56.096;12.664;2023-04-12T08:29:16;100529.59;;;9.77;100.00
13732;BME280;6937;56.096;12.664;2023-04-12T08:31:42;100529.03;;;9.84;100.00
13732;BME280;6937;56.096;12.664;2023-04-12T08:34:08;100531.25;;;9.90;100.00
13732;BME280;6937;56.096;12.664;2023-04-12T08:36:33;100540.31;;;10.00;100.00
13732;BME280;6937;56.096;12.664;2023-04-12T08:38:59;100536.00;;;10.10;100.00
13732;BME280;6937;56.096;12.664;2023-04-12T08:41:26;100527.13;;;10.10;100.00
13732;BME280;6937;56.096;12.664;2023-04-12T08:43:52;100521.69;;;10.11;100.00
13732;BME280;6937;56.096;12.664;2023-04-12T08:46:20;100528.16;;;10.20;100.00
13732;BME280;6937;56.096;12.664;2023-04-12T08:48:48;100513.00;;;9.97;100.00
13732;BME280;6937;56.096;12.664;2023-04-12T08:51:16;100519.44;;;9.82;100.00
13732;BME280;6937;56.096;12.664;2023-04-12T08:53:42;100534.88;;;9.65;100.00
13732;BME280;6937;56.096;12.664;2023-04-12T08:56:09;100540.44;;;9.62;100.00
13732;BME280;6937;56.096;12.664;2023-04-12T08:58:40;100541.94;;;9.54;100.00
13732;BME280;6937;56.096;12.664;2023-04-12T09:01:12;100536.91;;;9.49;100.00
13732;BME280;6937;56.096;12.664;2023-04-12T09:03:39;100533.22;;;9.39;100.00
13732;BME280;6937;56.096;12.664;2023-04-12T09:06:05;100530.34;;;9.30;100.00
13732;BME280;6937;56.096;12.664;2023-04-12T09:08:30;100533.22;;;9.27;100.00
13732;BME280;6937;56.096;12.664;2023-04-12T09:10:56;100543.16;;;9.25;100.00
13732;BME280;6937;56.096;12.664;2023-04-12T09:13:32;100532.03;;;9.31;100.00
13732;BME280;6937;56.096;12.664;2023-04-12T09:16:00;100532.03;;;9.31;100.00
13732;BME280;6937;56.096;12.664;2023-04-12T09:18:25;100533.53;;;9.35;100.00
13732;BME280;6937;56.096;12.664;2023-04-12T09:21:07;100524.91;;;9.31;100.00
13732;BME280;6937;56.096;12.664;2023-04-12T09:23:33;100528.88;;;9.26;100.00
13732;BME280;6937;56.096;12.664;2023-04-12T09:26:00;100539.22;;;9.17;100.00
13732;BME280;6937;56.096;12.664;2023-04-12T09:28:27;100528.97;;;9.24;100.00
13732;BME280;6937;56.096;12.664;2023-04-12T09:30:57;100517.97;;;9.16;100.00
13732;BME280;6937;56.096;12.664;2023-04-12T09:33:32;100523.00;;;9.20;100.00
13732;BME280;6937;56.096;12.664;2023-04-12T09:36:06;100520.97;;;9.24;100.00
13732;BME280;6937;56.096;12.664;2023-04-12T09:38:37;100533.25;;;9.14;100.00
13732;BME280;6937;56.096;12.664;2023-04-12T09:41:19;100518.41;;;9.10;100.00
13732;BME280;6937;56.096;12.664;2023-04-12T09:43:46;100528.53;;;9.17;100.00
13732;BME280;6937;56.096;12.664;2023-04-12T09:46:13;100520.78;;;9.14;100.00
13732;BME280;6937;56.096;12.664;2023-04-12T09:48:39;100518.28;;;9.11;100.00
13732;BME280;6937;56.096;12.664;2023-04-12T09:51:06;100511.69;;;9.04;100.00
13732;BME280;6937;56.096;12.664;2023-04-12T09:53:37;100509.16;;;9.03;100.00
13732;BME280;6937;56.096;12.664;2023-04-12T09:56:06;100514.66;;;9.00;100.00
13732;BME280;6937;56.096;12.664;2023-04-12T09:58:35;100507.53;;;9.13;100.00
13732;BME280;6937;56.096;12.664;2023-04-12T10:01:01;100506.78;;;9.23;100.00
13732;BME280;6937;56.096;12.664;2023-04-12T10:03:28;100512.41;;;9.32;100.00
13732;BME280;6937;56.096;12.664;2023-04-12T10:05:54;100514.34;;;9.17;100.00
13732;BME280;6937;56.096;12.664;2023-04-12T10:08:21;100493.03;;;9.17;100.00
13732;BME280;6937;56.096;12.664;2023-04-12T10:10:47;100500.47;;;9.25;100.00
13732;BME280;6937;56.096;12.664;2023-04-12T10:13:13;100485.66;;;9.20;100.00
13732;BME280;6937;56.096;12.664;2023-04-12T10:15:40;100483.72;;;9.35;100.00
13732;BME280;6937;56.096;12.664;2023-04-12T10:18:06;100483.56;;;9.49;100.00
13732;BME280;6937;56.096;12.664;2023-04-12T10:20:32;100479.69;;;9.66;100.00
13732;BME280;6937;56.096;12.664;2023-04-12T10:22:57;100474.84;;;9.71;100.00
13732;BME280;6937;56.096;12.664;2023-04-12T10:25:24;100465.03;;;9.71;100.00
13732;BME280;6937;56.096;12.664;2023-04-12T10:27:51;100469.75;;;9.68;100.00
13732;BME280;6937;56.096;12.664;2023-04-12T10:30:24;100464.34;;;9.57;100.00
13732;BME280;6937;56.096;12.664;2023-04-12T10:38:21;100461.50;;;9.95;100.00
13732;BME280;6937;56.096;12.664;2023-04-12T10:41:12;100451.59;;;9.97;100.00
13732;BME280;6937;56.096;12.664;2023-04-12T10:43:47;100447.78;;;9.88;100.00
13732;BME280;6937;56.096;12.664;2023-04-12T10:49:13;100447.81;;;9.76;100.00
13732;BME280;6937;56.096;12.664;2023-04-12T10:52:10;100447.22;;;9.96;100.00
13732;BME280;6937;56.096;12.664;2023-04-12T10:56:51;100443.25;;;10.12;100.00
13732;BME280;6937;56.096;12.664;2023-04-12T10:59:16;100444.41;;;10.21;100.00
13732;BME280;6937;56.096;12.664;2023-04-12T11:02:20;100430.09;;;10.22;100.00
13732;BME280;6937;56.096;12.664;2023-04-12T11:05:08;100423.66;;;10.25;100.00
13732;BME280;6937;56.096;12.664;2023-04-12T11:07:41;100413.28;;;10.44;100.00
13732;BME280;6937;56.096;12.664;2023-04-12T11:10:14;100410.84;;;10.41;100.00
13732;BME280;6937;56.096;12.664;2023-04-12T11:12:41;100410.59;;;10.44;100.00
13732;BME280;6937;56.096;12.664;2023-04-12T11:15:12;100402.59;;;10.44;100.00
13732;BME280;6937;56.096;12.664;2023-04-12T11:17:37;100406.13;;;10.44;100.00
13732;BME280;6937;56.096;12.664;2023-04-12T11:20:03;100402.09;;;10.50;100.00
13732;BME280;6937;56.096;12.664;2023-04-12T11:22:31;100392.69;;;10.68;100.00
13732;BME280;6937;56.096;12.664;2023-04-12T11:25:00;100363.25;;;10.90;100.00
13732;BME280;6937;56.096;12.664;2023-04-12T11:27:28;100379.78;;;10.95;100.00
13732;BME280;6937;56.096;12.664;2023-04-12T11:29:55;100378.09;;;10.83;100.00
13732;BME280;6937;56.096;12.664;2023-04-12T11:32:23;100369.47;;;10.91;100.00
13732;BME280;6937;56.096;12.664;2023-04-12T11:34:50;100370.78;;;11.07;100.00
13732;BME280;6937;56.096;12.664;2023-04-12T11:37:17;100361.03;;;11.18;100.00
13732;BME280;6937;56.096;12.664;2023-04-12T11:39:44;100365.44;;;11.07;100.00
13732;BME280;6937;56.096;12.664;2023-04-12T11:42:15;100368.13;;;10.96;100.00
13732;BME280;6937;56.096;12.664;2023-04-12T11:44:45;100361.91;;;10.96;100.00
13732;BME280;6937;56.096;12.664;2023-04-12T11:47:21;100365.31;;;11.09;100.00
13732;BME280;6937;56.096;12.664;2023-04-12T11:49:48;100364.13;;;11.45;100.00
13732;BME280;6937;56.096;12.664;2023-04-12T11:52:15;100351.84;;;11.42;100.00
13732;BME280;6937;56.096;12.664;2023-04-12T11:54:43;100358.44;;;11.70;100.00
13732;BME280;6937;56.096;12.664;2023-04-12T11:57:10;100354.81;;;11.60;100.00
13732;BME280;6937;56.096;12.664;2023-04-12T11:59:35;100363.44;;;11.32;100.00
13732;BME280;6937;56.096;12.664;2023-04-12T12:02:01;100377.03;;;11.29;100.00
13732;BME280;6937;56.096;12.664;2023-04-12T12:04:27;100364.28;;;11.43;100.00
13732;BME280;6937;56.096;12.664;2023-04-12T12:06:57;100372.72;;;11.59;100.00
13732;BME280;6937;56.096;12.664;2023-04-12T12:09:24;100356.31;;;11.53;100.00
13732;BME280;6937;56.096;12.664;2023-04-12T12:11:50;100358.72;;;11.56;100.00
13732;BME280;6937;56.096;12.664;2023-04-12T12:14:20;100342.94;;;11.85;100.00
13732;BME280;6937;56.096;12.664;2023-04-12T12:16:57;100336.16;;;12.01;100.00
13732;BME280;6937;56.096;12.664;2023-04-12T12:19:30;100323.44;;;12.15;100.00
13732;BME280;6937;56.096;12.664;2023-04-12T12:22:16;100295.91;;;12.33;100.00
13732;BME280;6937;56.096;12.664;2023-04-12T12:25:00;100260.72;;;12.27;100.00
13732;BME280;6937;56.096;12.664;2023-04-12T12:27:38;100224.84;;;12.08;100.00
13732;BME280;6937;56.096;12.664;2023-04-12T12:30:08;100217.66;;;12.09;100.00
13732;BME280;6937;56.096;12.664;2023-04-12T12:32:35;100220.72;;;12.35;100.00
13732;BME280;6937;56.096;12.664;2023-04-12T12:35:02;100217.94;;;12.46;100.00
13732;BME280;6937;56.096;12.664;2023-04-12T12:37:28;100217.72;;;12.68;100.00
13732;BME280;6937;56.096;12.664;2023-04-12T12:40:09;100208.09;;;12.56;100.00
13732;BME280;6937;56.096;12.664;2023-04-12T12:42:53;100227.53;;;12.48;100.00
13732;BME280;6937;56.096;12.664;2023-04-12T12:45:21;100233.84;;;12.78;100.00
13732;BME280;6937;56.096;12.664;2023-04-12T12:48:03;100240.78;;;13.09;100.00
13732;BME280;6937;56.096;12.664;2023-04-12T12:50:31;100236.47;;;13.56;100.00
13732;BME280;6937;56.096;12.664;2023-04-12T12:52:57;100235.44;;;13.86;100.00
13732;BME280;6937;56.096;12.664;2023-04-12T12:55:27;100227.44;;;14.13;100.00
13732;BME280;6937;56.096;12.664;2023-04-12T12:57:54;100212.50;;;14.38;100.00
13732;BME280;6937;56.096;12.664;2023-04-12T13:00:25;100228.25;;;14.60;100.00
13732;BME280;6937;56.096;12.664;2023-04-12T13:02:52;100227.16;;;14.80;100.00